Impacts METAR Board
IDs:

KMIA - Miami Intl, FL, US

Updated at: 1200 UTC 19 Jun 2018
Potential Impact None Slight Moderate High
Time 19/00Z 19/01Z 19/02Z 19/03Z 19/04Z 19/05Z 19/06Z 19/07Z 19/08Z 19/09Z 19/10Z 19/11Z 19/12Z
Temp83 82 82 82 81 81 80 80 80 79 78 79 81
Dewpt73 74 74 74 74 74 75 75 74 74 75 75 75
Altim30.04 30.03 30.05 30.05 30.06 30.05 30.02 30.00 29.99 30.00 30.01 30.03 30.04
VIS10 10 10 10 10 10 10 10 10 10 10 10 10
CIG-- -- -- -- -- -- -- -- -- -- -- -- --
CoverSCTSCTFEWFEWFEWFEWFEWFEWFEWFEWSCTSCTSCT
FltCatVFRVFRVFRVFRVFRVFRVFRVFRVFRVFRVFRVFRVFR
WX--------------------------
WDir80508060502036036020000330
WSpd7 6 6 5 3 3 3 3 3 0 0 0 4
WGst-- -- -- -- -- -- -- -- -- -- -- -- --
Raw hourly METARs
KMIA 182353Z 08007KT 10SM FEW026 FEW070 SCT250 28/23 A3004 RMK AO2 SLP172 T02830228 10311 20267 55001
KMIA 190053Z 05006KT 10SM FEW022 FEW070 SCT250 28/23 A3003 RMK AO2 SLP170 CONS LTGIC DSNT W CB DSNT W-NW T02780233 $
KMIA 190153Z 08006KT 10SM FEW027 28/23 A3005 RMK AO2 SLP174 T02780233 $
KMIA 190253Z 06005KT 10SM FEW024 28/23 A3005 RMK AO2 SLP176 T02780233 53004 $
KMIA 190353Z 05003KT 10SM FEW025 27/23 A3006 RMK AO2 SLP179 T02720233 $
KMIA 190453Z 02003KT 10SM FEW027 27/23 A3005 RMK AO2 SLP174 T02720233 403170250 $
KMIA 190553Z 36003KT 10SM FEW024 27/24 A3002 RMK AO2 SLP166 T02670239 10283 20267 58010 $
KMIA 190653Z 36003KT 10SM FEW025 27/24 A3000 RMK AO2 SLP160 T02670239 $
KMIA 190753Z 02003KT 10SM FEW025 27/23 A2999 RMK AO2 SLP156 T02670233 $
KMIA 190853Z 00000KT 10SM FEW025 26/23 A3000 RMK AO2 SLP159 T02610233 55008 $
KMIA 190953Z 00000KT 10SM FEW025 FEW040 SCT250 26/24 A3001 RMK AO2 SLP163 CB DSNT E T02560239 $
KMIA 191053Z 00000KT 10SM FEW025 SCT250 26/24 A3003 RMK AO2 SLP167 T02610239 $
KMIA 191153Z 33004KT 10SM FEW025 SCT250 27/24 A3004 RMK AO2 SLP172 T02720239 10272 20256 53014 $



Page loaded:  12:34 UTC  |   05:34 AM Pacific  |   06:34 AM Mountain  |   07:34 AM Central  |   08:34 AM Eastern

 

ADVISORIES

FORECASTS

FORECASTS

OBSERVATIONS

USER TOOLS

ABOUT US